createdAt,value
2019-03-05T00:00:14.436Z,-0.99
2019-03-05T00:01:14.300Z,-1.02
2019-03-05T00:02:14.172Z,-1.06
2019-03-05T00:03:14.034Z,-1.06
2019-03-05T00:04:13.898Z,-1.03
2019-03-05T00:05:13.766Z,-1.00
2019-03-05T00:06:13.630Z,-0.92
2019-03-05T00:07:13.497Z,-0.92
2019-03-05T00:08:13.361Z,-0.91
2019-03-05T00:09:13.229Z,-0.91
2019-03-05T00:10:13.095Z,-0.92
2019-03-05T00:11:12.959Z,-0.86
2019-03-05T00:12:13.558Z,-0.81
2019-03-05T00:13:12.697Z,-0.89
2019-03-05T00:14:12.557Z,-0.91
2019-03-05T00:15:12.425Z,-1.05
2019-03-05T00:16:12.291Z,-1.00
2019-03-05T00:17:12.158Z,-0.94
2019-03-05T00:18:12.053Z,-0.92
2019-03-05T00:19:11.887Z,-0.84
2019-03-05T00:20:11.751Z,-0.87
2019-03-05T00:21:11.618Z,-0.89
2019-03-05T00:22:11.486Z,-0.84
2019-03-05T00:23:11.352Z,-0.99
2019-03-05T00:24:11.218Z,-1.05
2019-03-05T00:25:11.084Z,-1.00
2019-03-05T00:26:10.951Z,-0.89
2019-03-05T00:27:10.820Z,-0.91
2019-03-05T00:28:10.679Z,-1.02
2019-03-05T00:29:10.547Z,-0.97
2019-03-05T00:30:10.415Z,-1.03
2019-03-05T00:31:10.278Z,-0.99
2019-03-05T00:32:10.145Z,-0.92
2019-03-05T00:33:10.065Z,-0.92
2019-03-05T00:34:09.877Z,-0.87
2019-03-05T00:35:09.746Z,-0.97
2019-03-05T00:36:09.610Z,-1.10
2019-03-05T00:37:09.477Z,-1.05
2019-03-05T00:38:09.343Z,-0.94
2019-03-05T00:39:09.211Z,-0.84
2019-03-05T00:40:09.082Z,-0.91
2019-03-05T00:41:09.553Z,-0.91
2019-03-05T00:42:08.811Z,-0.94
2019-03-05T00:43:08.672Z,-1.05
2019-03-05T00:44:08.539Z,-1.06
2019-03-05T00:45:08.417Z,-1.02
2019-03-05T00:46:08.281Z,-1.06
2019-03-05T00:47:08.138Z,-1.17
2019-03-05T00:48:08.002Z,-1.27
2019-03-05T00:49:07.870Z,-1.31
2019-03-05T00:50:07.737Z,-1.25
2019-03-05T00:51:07.601Z,-1.31
2019-03-05T00:52:07.466Z,-1.43
2019-03-05T00:53:07.335Z,-1.31
2019-03-05T00:54:07.219Z,-1.33
2019-03-05T00:55:07.066Z,-1.23
2019-03-05T00:56:06.940Z,-1.30
2019-03-05T00:57:06.796Z,-1.31
2019-03-05T00:58:06.664Z,-1.25
2019-03-05T00:59:06.528Z,-1.33
2019-03-05T01:00:06.392Z,-1.28
2019-03-05T01:01:06.261Z,-1.31
2019-03-05T01:02:06.128Z,-1.25
2019-03-05T01:03:05.989Z,-1.28
2019-03-05T01:04:05.856Z,-1.25
2019-03-05T01:05:05.721Z,-1.24
2019-03-05T01:06:05.630Z,-1.28
2019-03-05T01:07:05.452Z,-1.27
2019-03-05T01:08:05.316Z,-1.33
2019-03-05T01:09:05.187Z,-1.28
2019-03-05T01:10:05.559Z,-1.17
2019-03-05T01:11:04.916Z,-1.13
2019-03-05T01:12:04.785Z,-1.17
2019-03-05T01:13:04.645Z,-1.02
2019-03-05T01:14:04.512Z,-1.17
2019-03-05T01:15:04.381Z,-1.30
2019-03-05T01:16:04.270Z,-1.10
2019-03-05T01:17:04.110Z,-1.17
2019-03-05T01:18:03.975Z,-1.05
2019-03-05T01:19:03.843Z,-1.09
2019-03-05T01:20:03.705Z,-1.06
2019-03-05T01:21:03.570Z,-0.97
2019-03-05T01:22:03.452Z,-0.94
2019-03-05T01:23:03.302Z,-0.97
2019-03-05T01:24:03.169Z,-0.83
2019-03-05T01:25:03.034Z,-0.86
2019-03-05T01:26:02.899Z,-0.89
2019-03-05T01:27:02.766Z,-0.87
2019-03-05T01:28:02.633Z,-0.84
2019-03-05T01:29:02.498Z,-0.94
2019-03-05T01:30:02.365Z,-1.10
2019-03-05T01:31:02.229Z,-1.21
2019-03-05T01:32:02.109Z,-1.17
2019-03-05T01:33:01.979Z,-1.25
2019-03-05T01:34:01.830Z,-1.27
2019-03-05T01:35:01.693Z,-1.33
2019-03-05T01:36:01.559Z,-1.31
2019-03-05T01:37:01.426Z,-1.31
2019-03-05T01:38:01.292Z,-1.45
2019-03-05T01:39:01.563Z,-1.28
2019-03-05T01:40:01.023Z,-1.30
2019-03-05T01:41:00.888Z,-1.24
2019-03-05T01:42:00.752Z,-1.27
2019-03-05T01:43:00.621Z,-1.36
2019-03-05T01:44:00.482Z,-1.35
2019-03-05T01:45:00.422Z,-1.24
2019-03-05T01:46:00.216Z,-1.24
2019-03-05T01:47:00.081Z,-1.25
2019-03-05T01:47:59.946Z,-1.27
2019-03-05T01:48:59.815Z,-1.20
2019-03-05T01:49:59.676Z,-1.27
2019-03-05T01:50:59.543Z,-1.31
2019-03-05T01:51:59.408Z,-1.27
2019-03-05T01:52:59.273Z,-1.27
2019-03-05T01:53:59.141Z,-1.27
2019-03-05T01:54:59.012Z,-1.23
2019-03-05T01:55:58.872Z,-1.28
2019-03-05T01:56:58.742Z,-1.28
2019-03-05T01:57:58.602Z,-1.24
2019-03-05T01:58:58.469Z,-1.25
2019-03-05T01:59:58.334Z,-1.23
2019-03-05T02:00:58.199Z,-1.25
2019-03-05T02:01:58.064Z,-1.18
2019-03-05T02:02:57.932Z,-1.21
2019-03-05T02:03:57.799Z,-1.30
2019-03-05T02:04:57.663Z,-1.24
2019-03-05T02:05:57.530Z,-1.31
2019-03-05T02:06:57.393Z,-1.24
2019-03-05T02:07:57.569Z,-1.30
2019-03-05T02:08:57.128Z,-1.31
2019-03-05T02:09:56.990Z,-1.31
2019-03-05T02:10:56.857Z,-1.36
2019-03-05T02:11:56.724Z,-1.23
2019-03-05T02:12:56.587Z,-1.25
2019-03-05T02:13:56.455Z,-1.25
2019-03-05T02:14:56.317Z,-1.30
2019-03-05T02:15:56.183Z,-1.21
2019-03-05T02:16:56.053Z,-1.25
2019-03-05T02:17:55.918Z,-1.31
2019-03-05T02:18:55.782Z,-1.28
2019-03-05T02:19:55.647Z,-1.45
2019-03-05T02:20:55.512Z,-1.38
2019-03-05T02:21:55.379Z,-1.25
2019-03-05T02:22:55.244Z,-1.24
2019-03-05T02:23:55.110Z,-1.30
2019-03-05T02:24:54.979Z,-1.20
2019-03-05T02:25:54.844Z,-1.25
2019-03-05T02:26:54.707Z,-1.31
2019-03-05T02:27:54.572Z,-1.28
2019-03-05T02:28:54.440Z,-1.28
2019-03-05T02:29:54.304Z,-1.45
2019-03-05T02:30:54.172Z,-1.43
2019-03-05T02:31:54.040Z,-1.30
2019-03-05T02:32:53.901Z,-1.31
2019-03-05T02:33:53.772Z,-1.30
2019-03-05T02:34:53.634Z,-1.31
2019-03-05T02:35:53.499Z,-1.42
2019-03-05T02:36:53.573Z,-1.39
2019-03-05T02:37:53.233Z,-1.41
2019-03-05T02:38:53.095Z,-1.43
2019-03-05T02:39:52.965Z,-1.48
2019-03-05T02:40:52.830Z,-1.41
2019-03-05T02:41:52.697Z,-1.43
2019-03-05T02:42:52.559Z,-1.46
2019-03-05T02:43:52.423Z,-1.36
2019-03-05T02:44:52.295Z,-1.43
2019-03-05T02:45:52.156Z,-1.45
2019-03-05T02:46:52.022Z,-1.36
2019-03-05T02:47:51.979Z,-1.41
2019-03-05T02:48:51.756Z,-1.42
2019-03-05T02:49:51.623Z,-1.39
2019-03-05T02:50:51.486Z,-1.42
2019-03-05T02:51:51.353Z,-1.56
2019-03-05T02:52:51.239Z,-1.54
2019-03-05T02:53:52.729Z,-1.53
2019-03-05T02:54:50.948Z,-1.54
2019-03-05T02:55:50.814Z,-1.49
2019-03-05T02:56:50.680Z,-1.49
2019-03-05T02:57:50.544Z,-1.45
2019-03-05T02:58:50.409Z,-1.36
2019-03-05T02:59:50.286Z,-1.39
2019-03-05T03:00:50.153Z,-1.36
2019-03-05T03:01:50.009Z,-1.38
2019-03-05T03:02:49.872Z,-1.39
2019-03-05T03:03:49.740Z,-1.41
2019-03-05T03:04:49.606Z,-1.41
2019-03-05T03:05:49.611Z,-1.42
2019-03-05T03:06:49.334Z,-1.46
2019-03-05T03:07:49.225Z,-1.49
2019-03-05T03:08:49.078Z,-1.56
2019-03-05T03:09:48.930Z,-1.51
2019-03-05T03:10:48.799Z,-1.59
2019-03-05T03:11:48.666Z,-1.60
2019-03-05T03:12:48.529Z,-1.48
2019-03-05T03:13:48.398Z,-1.48
2019-03-05T03:14:48.264Z,-1.45
2019-03-05T03:15:48.125Z,-1.53
2019-03-05T03:16:47.990Z,-1.56
2019-03-05T03:17:47.855Z,-1.46
2019-03-05T03:18:47.734Z,-1.51
2019-03-05T03:19:47.592Z,-1.56
2019-03-05T03:20:47.452Z,-1.46
2019-03-05T03:21:47.319Z,-1.31
2019-03-05T03:22:47.184Z,-1.30
2019-03-05T03:23:47.050Z,-1.27
2019-03-05T03:24:46.914Z,-1.36
2019-03-05T03:25:46.780Z,-1.46
2019-03-05T03:26:46.651Z,-1.39
2019-03-05T03:27:46.511Z,-1.42
2019-03-05T03:28:46.381Z,-1.42
2019-03-05T03:29:46.250Z,-1.48
2019-03-05T03:30:46.106Z,-1.49
2019-03-05T03:31:45.986Z,-1.59
2019-03-05T03:32:45.937Z,-1.54
2019-03-05T03:33:45.702Z,-1.56
2019-03-05T03:34:45.619Z,-1.57
2019-03-05T03:35:45.436Z,-1.53
2019-03-05T03:36:45.307Z,-1.46
2019-03-05T03:37:45.167Z,-1.54
2019-03-05T03:38:45.029Z,-1.41
2019-03-05T03:39:44.898Z,-1.43
2019-03-05T03:40:44.765Z,-1.45
2019-03-05T03:41:44.630Z,-1.21
2019-03-05T03:42:44.497Z,-1.27
2019-03-05T03:43:44.360Z,-1.13
2019-03-05T03:44:44.225Z,-1.05
2019-03-05T03:45:44.089Z,-1.09
2019-03-05T03:46:43.955Z,-1.03
2019-03-05T03:47:43.823Z,-1.09
2019-03-05T03:48:43.690Z,-1.00
2019-03-05T03:49:43.551Z,-1.09
2019-03-05T03:50:43.418Z,-1.09
2019-03-05T03:51:43.287Z,-1.05
2019-03-05T03:52:43.149Z,-1.15
2019-03-05T03:53:43.015Z,-1.17
2019-03-05T03:54:42.881Z,-1.17
2019-03-05T03:55:42.759Z,-1.17
2019-03-05T03:56:42.613Z,-1.20
2019-03-05T03:57:42.495Z,-1.12
2019-03-05T03:58:42.345Z,-1.18
2019-03-05T03:59:42.211Z,-1.17
2019-03-05T04:00:42.075Z,-1.31
2019-03-05T04:01:41.938Z,-1.20
2019-03-05T04:02:41.807Z,-1.15
2019-03-05T04:03:41.679Z,-1.25
2019-03-05T04:04:41.535Z,-1.27
2019-03-05T04:05:41.406Z,-1.31
2019-03-05T04:06:41.268Z,-1.30
2019-03-05T04:07:41.134Z,-1.28
2019-03-05T04:08:41.001Z,-1.28
2019-03-05T04:09:40.873Z,-1.30
2019-03-05T04:10:40.746Z,-1.27
2019-03-05T04:11:40.602Z,-1.35
2019-03-05T04:12:40.462Z,-1.27
2019-03-05T04:13:40.329Z,-1.25
2019-03-05T04:14:40.198Z,-1.27
2019-03-05T04:15:40.169Z,-1.23
2019-03-05T04:16:39.932Z,-1.15
2019-03-05T04:17:39.793Z,-1.15
2019-03-05T04:18:39.658Z,-1.24
2019-03-05T04:19:39.526Z,-1.27
2019-03-05T04:20:39.392Z,-1.30
2019-03-05T04:21:39.259Z,-1.27
2019-03-05T04:22:39.123Z,-1.36
2019-03-05T04:23:38.988Z,-1.31
2019-03-05T04:24:38.856Z,-1.30
2019-03-05T04:25:38.719Z,-1.31
2019-03-05T04:26:38.583Z,-1.28
2019-03-05T04:27:38.449Z,-1.31
2019-03-05T04:28:38.320Z,-1.20
2019-03-05T04:29:38.184Z,-1.28
2019-03-05T04:30:38.049Z,-1.18
2019-03-05T04:31:37.915Z,-1.25
2019-03-05T04:32:37.782Z,-1.23
2019-03-05T04:33:37.655Z,-1.21
2019-03-05T04:34:37.511Z,-1.17
2019-03-05T04:35:37.381Z,-1.24
2019-03-05T04:36:37.246Z,-1.23
2019-03-05T04:37:37.110Z,-1.20
2019-03-05T04:38:36.974Z,-1.25
2019-03-05T04:39:36.841Z,-1.20
2019-03-05T04:40:36.708Z,-1.20
2019-03-05T04:41:36.574Z,-1.28
2019-03-05T04:42:36.438Z,-1.27
2019-03-05T04:43:36.311Z,-1.25
2019-03-05T04:44:36.175Z,-1.21
2019-03-05T04:45:36.039Z,-1.20
2019-03-05T04:46:35.904Z,-1.30
2019-03-05T04:47:35.767Z,-1.21
2019-03-05T04:48:35.633Z,-1.17
2019-03-05T04:49:35.502Z,-1.20
2019-03-05T04:50:35.366Z,-1.18
2019-03-05T04:51:35.232Z,-1.21
2019-03-05T04:52:35.098Z,-1.18
2019-03-05T04:53:34.962Z,-1.13
2019-03-05T04:54:34.834Z,-1.21
2019-03-05T04:55:34.694Z,-1.13
2019-03-05T04:56:34.564Z,-1.18
2019-03-05T04:57:34.426Z,-1.02
2019-03-05T04:58:34.292Z,-1.03
2019-03-05T04:59:34.161Z,-1.06
2019-03-05T05:00:34.025Z,-1.07
2019-03-05T05:01:33.891Z,-1.03
2019-03-05T05:02:33.755Z,-1.15
2019-03-05T05:03:33.673Z,-1.09
2019-03-05T05:04:33.493Z,-1.18
2019-03-05T05:05:33.354Z,-1.17
2019-03-05T05:06:33.218Z,-1.15
2019-03-05T05:07:33.088Z,-1.17
2019-03-05T05:08:32.964Z,-1.15
2019-03-05T05:09:32.815Z,-1.13
2019-03-05T05:10:32.701Z,-1.15
2019-03-05T05:11:32.549Z,-1.23
2019-03-05T05:12:32.501Z,-1.27
2019-03-05T05:13:32.282Z,-1.27
2019-03-05T05:14:32.147Z,-1.33
2019-03-05T05:15:32.011Z,-1.31
2019-03-05T05:16:31.876Z,-1.20
2019-03-05T05:17:31.745Z,-1.28
2019-03-05T05:18:31.674Z,-1.28
2019-03-05T05:19:31.475Z,-1.25
2019-03-05T05:20:31.344Z,-1.25
2019-03-05T05:21:31.208Z,-1.27
2019-03-05T05:22:31.074Z,-1.18
2019-03-05T05:23:30.939Z,-1.18
2019-03-05T05:24:30.807Z,-1.20
2019-03-05T05:25:30.670Z,-1.21
2019-03-05T05:26:30.537Z,-1.13
2019-03-05T05:27:30.413Z,-1.05
2019-03-05T05:28:30.270Z,-1.06
2019-03-05T05:29:30.142Z,-1.13
2019-03-05T05:30:30.001Z,-1.07
2019-03-05T05:31:29.866Z,-1.09
2019-03-05T05:32:29.734Z,-1.15
2019-03-05T05:33:29.613Z,-1.12
2019-03-05T05:34:29.469Z,-1.18
2019-03-05T05:35:29.336Z,-1.15
2019-03-05T05:36:29.204Z,-1.09
2019-03-05T05:37:29.065Z,-1.27
2019-03-05T05:38:28.934Z,-1.38
2019-03-05T05:39:28.797Z,-1.25
2019-03-05T05:40:28.662Z,-1.25
2019-03-05T05:41:28.529Z,-1.39
2019-03-05T05:42:28.396Z,-1.42
2019-03-05T05:43:30.249Z,-1.42
2019-03-05T05:44:28.126Z,-1.49
2019-03-05T05:45:27.996Z,-1.48
2019-03-05T05:46:27.860Z,-1.54
2019-03-05T05:47:27.726Z,-1.60
2019-03-05T05:48:27.593Z,-1.49
2019-03-05T05:49:27.459Z,-1.53
2019-03-05T05:50:27.324Z,-1.56
2019-03-05T05:51:27.188Z,-1.56
2019-03-05T05:52:27.056Z,-1.56
2019-03-05T05:53:26.920Z,-1.62
2019-03-05T05:54:26.787Z,-1.62
2019-03-05T05:55:26.657Z,-1.63
2019-03-05T05:56:26.519Z,-1.57
2019-03-05T05:57:26.390Z,-1.57
2019-03-05T05:58:26.249Z,-1.54
2019-03-05T05:59:26.117Z,-1.53
2019-03-05T06:00:25.983Z,-1.53
2019-03-05T06:01:25.848Z,-1.54
2019-03-05T06:02:25.717Z,-1.51
2019-03-05T06:03:25.578Z,-1.59
2019-03-05T06:04:25.466Z,-1.57
2019-03-05T06:05:25.313Z,-1.54
2019-03-05T06:06:25.180Z,-1.59
2019-03-05T06:07:25.043Z,-1.64
2019-03-05T06:08:24.909Z,-1.67
2019-03-05T06:09:24.775Z,-1.66
2019-03-05T06:10:24.640Z,-1.66
2019-03-05T06:11:24.508Z,-1.66
2019-03-05T06:12:24.373Z,-1.67
2019-03-05T06:13:24.238Z,-1.63
2019-03-05T06:14:24.102Z,-1.66
2019-03-05T06:15:23.967Z,-1.60
2019-03-05T06:16:23.834Z,-1.62
2019-03-05T06:17:23.701Z,-1.54
2019-03-05T06:18:23.566Z,-1.49
2019-03-05T06:19:23.431Z,-1.54
2019-03-05T06:20:23.297Z,-1.51
2019-03-05T06:21:23.167Z,-1.51
2019-03-05T06:22:23.027Z,-1.51
2019-03-05T06:23:22.893Z,-1.60
2019-03-05T06:24:22.776Z,-1.56
2019-03-05T06:25:22.627Z,-1.56
2019-03-05T06:26:22.493Z,-1.51
2019-03-05T06:27:22.358Z,-1.45
2019-03-05T06:28:22.222Z,-1.39
2019-03-05T06:29:22.089Z,-1.36
2019-03-05T06:30:21.954Z,-1.33
2019-03-05T06:31:21.823Z,-1.33
2019-03-05T06:32:21.690Z,-1.17
2019-03-05T06:33:21.554Z,-1.24
2019-03-05T06:34:21.417Z,-1.28
2019-03-05T06:35:21.287Z,-1.25
2019-03-05T06:36:21.149Z,-1.23
2019-03-05T06:37:21.016Z,-1.24
2019-03-05T06:38:20.880Z,-1.21
2019-03-05T06:39:20.747Z,-1.10
2019-03-05T06:40:20.683Z,-1.24
2019-03-05T06:41:20.480Z,-1.31
2019-03-05T06:42:20.344Z,-1.41
2019-03-05T06:43:20.209Z,-1.48
2019-03-05T06:44:20.079Z,-1.46
2019-03-05T06:45:19.947Z,-1.45
2019-03-05T06:46:19.808Z,-1.45
2019-03-05T06:47:19.674Z,-1.41
2019-03-05T06:48:19.540Z,-1.43
2019-03-05T06:49:19.407Z,-1.28
2019-03-05T06:50:19.276Z,-1.21
2019-03-05T06:51:19.145Z,-1.28
2019-03-05T06:52:19.008Z,-1.27
2019-03-05T06:53:18.870Z,-1.42
2019-03-05T06:54:18.735Z,-1.56
2019-03-05T06:55:18.603Z,-1.54
2019-03-05T06:56:18.467Z,-1.57
2019-03-05T06:57:18.334Z,-1.51
2019-03-05T06:58:18.207Z,-1.54
2019-03-05T06:59:18.067Z,-1.57
2019-03-05T07:00:17.931Z,-1.54
2019-03-05T07:01:17.799Z,-1.66
2019-03-05T07:02:17.665Z,-1.63
2019-03-05T07:03:17.529Z,-1.56
2019-03-05T07:04:17.393Z,-1.49
2019-03-05T07:05:17.258Z,-1.51
2019-03-05T07:06:17.126Z,-1.46
2019-03-05T07:07:16.992Z,-1.49
2019-03-05T07:08:16.856Z,-1.51
2019-03-05T07:09:16.723Z,-1.45
2019-03-05T07:10:16.591Z,-1.42
2019-03-05T07:11:16.456Z,-1.41
2019-03-05T07:12:16.324Z,-1.46
2019-03-05T07:13:16.193Z,-1.53
2019-03-05T07:14:16.051Z,-1.62
2019-03-05T07:15:15.918Z,-1.69
2019-03-05T07:16:15.784Z,-1.70
2019-03-05T07:17:15.651Z,-1.63
2019-03-05T07:18:15.514Z,-1.53
2019-03-05T07:19:15.380Z,-1.42
2019-03-05T07:20:15.245Z,-1.25
2019-03-05T07:21:15.114Z,-1.06
2019-03-05T07:22:14.990Z,-0.81
2019-03-05T07:23:14.859Z,-0.75
2019-03-05T07:24:14.711Z,-0.68
2019-03-05T07:25:14.580Z,-0.50
2019-03-05T07:26:14.444Z,-0.27
2019-03-05T07:27:14.310Z,-0.13
2019-03-05T07:28:14.175Z,0.02
2019-03-05T07:29:14.043Z,0.06
2019-03-05T07:30:13.907Z,0.07
2019-03-05T07:31:13.774Z,0.18
2019-03-05T07:32:13.646Z,0.23
2019-03-05T07:33:13.507Z,0.27
2019-03-05T07:34:13.380Z,0.25
2019-03-05T07:35:13.245Z,0.24
2019-03-05T07:36:13.108Z,0.24
2019-03-05T07:37:12.977Z,0.21
2019-03-05T07:38:12.847Z,0.25
2019-03-05T07:39:12.716Z,0.28
2019-03-05T07:40:12.642Z,0.38
2019-03-05T07:41:12.445Z,0.53
2019-03-05T07:42:12.313Z,0.67
2019-03-05T07:43:12.183Z,0.67
2019-03-05T07:44:12.050Z,0.72
2019-03-05T07:45:11.928Z,1.14
2019-03-05T07:46:11.786Z,1.50
2019-03-05T07:47:11.656Z,1.80
2019-03-05T07:48:11.530Z,2.08
2019-03-05T07:49:11.391Z,2.20
2019-03-05T07:50:11.255Z,2.22
2019-03-05T07:51:11.123Z,2.13
2019-03-05T07:52:10.993Z,2.28
2019-03-05T07:53:10.862Z,2.48
2019-03-05T07:54:10.731Z,2.76
2019-03-05T07:55:13.906Z,2.69
2019-03-05T07:56:10.466Z,2.76
2019-03-05T07:57:10.339Z,2.69
2019-03-05T07:58:10.205Z,2.61
2019-03-05T07:59:10.078Z,2.44
2019-03-05T08:00:09.943Z,2.17
2019-03-05T08:01:21.527Z,2.16
2019-03-05T08:02:09.682Z,2.40
2019-03-05T08:03:09.553Z,2.56
2019-03-05T08:04:09.418Z,2.64
2019-03-05T08:05:09.289Z,2.77
2019-03-05T08:06:09.155Z,2.74
2019-03-05T08:07:09.025Z,2.74
2019-03-05T08:08:08.894Z,2.63
2019-03-05T08:09:08.763Z,2.74
2019-03-05T08:10:08.632Z,2.82
2019-03-05T08:11:08.503Z,2.97
2019-03-05T08:12:08.375Z,3.18
2019-03-05T08:13:08.241Z,3.27
2019-03-05T08:14:08.110Z,3.34
2019-03-05T08:15:07.977Z,3.44
2019-03-05T08:16:07.849Z,3.31
2019-03-05T08:17:07.739Z,3.10
2019-03-05T08:18:07.587Z,3.30
2019-03-05T08:19:07.459Z,3.28
2019-03-05T08:20:07.326Z,3.28
2019-03-05T08:21:07.197Z,3.16
2019-03-05T08:22:08.835Z,3.15
2019-03-05T08:23:06.937Z,3.24
2019-03-05T08:24:06.813Z,3.46
2019-03-05T08:25:06.674Z,3.54
2019-03-05T08:26:06.544Z,3.52
2019-03-05T08:27:06.413Z,3.64
2019-03-05T08:28:06.286Z,3.83
2019-03-05T08:29:06.172Z,3.88
2019-03-05T08:30:14.226Z,4.12
2019-03-05T08:31:05.892Z,4.32
2019-03-05T08:32:05.765Z,4.21
2019-03-05T08:33:05.654Z,4.52
2019-03-05T08:34:05.506Z,4.69
2019-03-05T08:35:05.375Z,4.47
2019-03-05T08:36:05.245Z,4.47
2019-03-05T08:37:05.114Z,4.39
2019-03-05T08:38:04.985Z,4.46
2019-03-05T08:39:04.859Z,4.64
2019-03-05T08:40:04.731Z,4.91
2019-03-05T08:41:04.607Z,5.01
2019-03-05T08:42:04.469Z,4.75
2019-03-05T08:43:04.341Z,4.54
2019-03-05T08:44:04.211Z,4.19
2019-03-05T08:45:04.082Z,4.46
2019-03-05T08:46:03.957Z,4.64
2019-03-05T08:47:03.827Z,4.75
2019-03-05T08:48:03.696Z,4.58
2019-03-05T08:49:03.575Z,4.50
2019-03-05T08:50:03.444Z,4.80
2019-03-05T08:51:03.312Z,5.12
2019-03-05T08:52:03.181Z,5.27
2019-03-05T08:53:03.063Z,5.63
2019-03-05T08:54:03.693Z,5.67
2019-03-05T08:55:02.795Z,5.82
2019-03-05T08:56:02.671Z,5.93
2019-03-05T08:57:02.541Z,5.96
2019-03-05T08:58:02.413Z,5.78
2019-03-05T08:59:02.311Z,5.93
2019-03-05T09:00:02.160Z,6.00
2019-03-05T09:01:02.032Z,6.01
2019-03-05T09:02:01.903Z,6.09
2019-03-05T09:03:01.776Z,5.48
2019-03-05T09:04:01.648Z,4.89
2019-03-05T09:05:01.518Z,4.92
2019-03-05T09:06:01.394Z,4.96
2019-03-05T09:07:01.266Z,5.25
2019-03-05T09:08:01.139Z,5.53
2019-03-05T09:09:01.013Z,5.57
2019-03-05T09:10:00.882Z,5.46
2019-03-05T09:11:00.755Z,5.09
2019-03-05T09:12:00.627Z,4.70
2019-03-05T09:13:00.500Z,4.77
2019-03-05T09:14:00.375Z,4.98
2019-03-05T09:15:00.325Z,5.37
2019-03-05T09:16:00.116Z,5.68
2019-03-05T09:16:59.990Z,5.88
2019-03-05T09:17:59.859Z,6.19
2019-03-05T09:18:59.735Z,6.46
2019-03-05T09:19:59.604Z,6.61
2019-03-05T09:20:59.478Z,6.72
2019-03-05T09:21:59.349Z,6.80
2019-03-05T09:22:59.723Z,7.19
2019-03-05T09:23:59.094Z,7.38
2019-03-05T09:24:58.965Z,7.49
2019-03-05T09:25:58.839Z,7.22
2019-03-05T09:26:58.715Z,7.34
2019-03-05T09:27:58.585Z,7.42
2019-03-05T09:28:58.460Z,7.60
2019-03-05T09:29:58.332Z,7.66
2019-03-05T09:30:58.203Z,7.56
2019-03-05T09:31:58.079Z,6.97
2019-03-05T09:32:57.951Z,6.99
2019-03-05T09:33:57.825Z,7.13
2019-03-05T09:34:57.698Z,6.81
2019-03-05T09:35:57.573Z,6.38
2019-03-05T09:36:57.446Z,6.11
2019-03-05T09:37:57.319Z,6.56
2019-03-05T09:38:57.192Z,6.95
2019-03-05T09:39:57.063Z,7.29
2019-03-05T09:40:56.937Z,7.81
2019-03-05T09:41:56.814Z,7.89
2019-03-05T09:42:56.686Z,8.02
2019-03-05T09:43:56.556Z,8.30
2019-03-05T09:44:56.430Z,8.60
2019-03-05T09:45:56.313Z,8.58
2019-03-05T09:46:56.179Z,8.68
2019-03-05T09:47:56.055Z,8.39
2019-03-05T09:48:55.927Z,8.17
2019-03-05T09:49:55.800Z,7.60
2019-03-05T09:50:55.673Z,7.44
2019-03-05T09:51:55.724Z,7.78
2019-03-05T09:52:55.538Z,7.90
2019-03-05T09:53:55.294Z,8.25
2019-03-05T09:54:55.169Z,8.39
2019-03-05T09:55:55.047Z,8.71
2019-03-05T09:56:54.919Z,8.36
2019-03-05T09:57:54.791Z,8.54
2019-03-05T09:58:54.667Z,8.48
2019-03-05T09:59:54.541Z,8.57
2019-03-05T10:00:54.414Z,8.83
2019-03-05T10:01:54.292Z,8.71
2019-03-05T10:02:54.173Z,8.26
2019-03-05T10:03:54.040Z,8.33
2019-03-05T10:04:53.922Z,8.53
2019-03-05T10:05:53.787Z,8.68
2019-03-05T10:06:53.669Z,8.69
2019-03-05T10:07:53.537Z,8.76
2019-03-05T10:08:53.413Z,8.99
2019-03-05T10:09:53.288Z,8.68
2019-03-05T10:10:53.163Z,8.32
2019-03-05T10:11:56.743Z,8.45
2019-03-05T10:12:52.916Z,8.37
2019-03-05T10:13:52.785Z,8.51
2019-03-05T10:14:52.661Z,8.75
2019-03-05T10:15:53.491Z,9.01
2019-03-05T10:16:52.411Z,9.52
2019-03-05T10:17:52.285Z,9.66
2019-03-05T10:18:52.157Z,9.82
2019-03-05T10:19:52.035Z,9.94
2019-03-05T10:20:51.910Z,10.19
2019-03-05T10:21:51.786Z,9.83
2019-03-05T10:22:51.659Z,9.50
2019-03-05T10:23:51.536Z,9.34
2019-03-05T10:24:51.475Z,9.31
2019-03-05T10:25:51.287Z,8.88
2019-03-05T10:26:51.164Z,8.60
2019-03-05T10:27:51.036Z,8.57
2019-03-05T10:28:50.911Z,8.84
2019-03-05T10:29:52.438Z,9.09
2019-03-05T10:30:50.663Z,9.27
2019-03-05T10:31:50.537Z,9.23
2019-03-05T10:32:50.413Z,8.75
2019-03-05T10:33:50.286Z,8.40
2019-03-05T10:34:50.164Z,8.36
2019-03-05T10:35:50.038Z,8.79
2019-03-05T10:36:49.914Z,9.25
2019-03-05T10:37:49.787Z,9.50
2019-03-05T10:38:57.197Z,9.58
2019-03-05T10:39:49.536Z,9.63
2019-03-05T10:40:49.415Z,9.73
2019-03-05T10:41:49.290Z,9.23
2019-03-05T10:42:49.164Z,8.91
2019-03-05T10:43:49.039Z,9.12
2019-03-05T10:44:48.915Z,9.35
2019-03-05T10:45:48.788Z,8.66
2019-03-05T10:46:48.665Z,8.44
2019-03-05T10:47:48.537Z,8.39
2019-03-05T10:48:48.416Z,8.90
2019-03-05T10:49:48.288Z,9.50
2019-03-05T10:50:48.163Z,9.96
2019-03-05T10:51:48.037Z,10.07
2019-03-05T10:52:47.915Z,10.42
2019-03-05T10:53:47.792Z,10.44
2019-03-05T10:54:47.665Z,10.26
2019-03-05T10:55:47.539Z,10.56
2019-03-05T10:56:47.413Z,10.19
2019-03-05T10:57:47.290Z,10.21
2019-03-05T10:58:47.163Z,10.12
2019-03-05T10:59:47.049Z,10.15
2019-03-05T11:00:46.916Z,9.57
2019-03-05T11:01:46.794Z,8.87
2019-03-05T11:02:46.665Z,8.68
2019-03-05T11:03:46.542Z,8.86
2019-03-05T11:04:46.416Z,9.23
2019-03-05T11:05:46.291Z,9.75
2019-03-05T11:06:46.167Z,9.89
2019-03-05T11:07:46.042Z,9.76
2019-03-05T11:08:45.919Z,9.66
2019-03-05T11:09:45.792Z,9.38
2019-03-05T11:10:45.666Z,9.25
2019-03-05T11:11:45.543Z,9.71
2019-03-05T11:12:45.415Z,10.06
2019-03-05T11:13:45.292Z,10.00
2019-03-05T11:14:45.171Z,9.89
2019-03-05T11:15:45.042Z,10.04
2019-03-05T11:16:44.918Z,10.04
2019-03-05T11:17:44.792Z,10.12
2019-03-05T11:18:44.666Z,10.03
2019-03-05T11:19:44.543Z,10.25
2019-03-05T11:20:44.419Z,10.53
2019-03-05T11:21:44.294Z,10.18
2019-03-05T11:22:44.170Z,9.86
2019-03-05T11:23:44.047Z,9.91
2019-03-05T11:24:43.922Z,10.06
2019-03-05T11:25:43.796Z,9.63
2019-03-05T11:26:43.672Z,9.46
2019-03-05T11:27:43.548Z,9.71
2019-03-05T11:28:43.423Z,9.42
2019-03-05T11:29:43.296Z,9.50
2019-03-05T11:30:43.175Z,9.39
2019-03-05T11:31:43.048Z,9.42
2019-03-05T11:32:42.923Z,9.38
2019-03-05T11:33:42.810Z,9.73
2019-03-05T11:34:42.676Z,9.52
2019-03-05T11:35:42.548Z,8.97
2019-03-05T11:36:42.424Z,9.15
2019-03-05T11:37:42.296Z,9.45
2019-03-05T11:38:42.175Z,9.56
2019-03-05T11:39:42.054Z,10.04
2019-03-05T11:40:41.922Z,9.93
2019-03-05T11:41:41.798Z,10.15
2019-03-05T11:42:41.673Z,10.04
2019-03-05T11:43:41.546Z,9.88
2019-03-05T11:44:41.423Z,9.71
2019-03-05T11:45:41.295Z,9.76
2019-03-05T11:46:41.171Z,10.21
2019-03-05T11:47:41.045Z,10.12
2019-03-05T11:48:41.746Z,10.26
2019-03-05T11:49:40.796Z,10.34
2019-03-05T11:50:40.674Z,10.53
2019-03-05T11:51:40.545Z,10.68
2019-03-05T11:52:40.420Z,10.01
2019-03-05T11:53:40.294Z,10.43
2019-03-05T11:54:40.170Z,10.53
2019-03-05T11:55:40.045Z,9.93
2019-03-05T11:56:39.920Z,9.79
2019-03-05T11:57:39.801Z,9.76
2019-03-05T11:58:39.674Z,9.79
2019-03-05T11:59:39.546Z,8.93
2019-03-05T12:00:39.420Z,8.63
2019-03-05T12:01:39.355Z,9.01
2019-03-05T12:02:39.169Z,9.49
2019-03-05T12:03:39.045Z,9.86
2019-03-05T12:04:38.924Z,10.17
2019-03-05T12:05:38.799Z,10.34
2019-03-05T12:06:38.671Z,10.15
2019-03-05T12:07:38.545Z,9.42
2019-03-05T12:08:38.423Z,9.60
2019-03-05T12:09:38.299Z,9.75
2019-03-05T12:10:38.171Z,10.03
2019-03-05T12:11:38.050Z,10.04
2019-03-05T12:12:37.925Z,9.67
2019-03-05T12:13:37.797Z,9.46
2019-03-05T12:14:37.676Z,9.88
2019-03-05T12:15:37.546Z,10.06
2019-03-05T12:16:37.421Z,10.18
2019-03-05T12:17:37.761Z,10.18
2019-03-05T12:18:37.172Z,9.75
2019-03-05T12:19:37.047Z,9.93
2019-03-05T12:20:36.922Z,10.18
2019-03-05T12:21:36.793Z,10.14
2019-03-05T12:22:36.669Z,10.30
2019-03-05T12:23:36.546Z,10.15
2019-03-05T12:24:36.419Z,10.06
2019-03-05T12:25:39.977Z,10.40
2019-03-05T12:26:36.172Z,10.59
2019-03-05T12:27:36.083Z,10.84
2019-03-05T12:28:35.921Z,10.78
2019-03-05T12:29:35.800Z,10.60
2019-03-05T12:30:35.668Z,10.73
2019-03-05T12:31:35.550Z,10.91
2019-03-05T12:32:35.420Z,9.85
2019-03-05T12:33:35.295Z,9.56
2019-03-05T12:34:35.169Z,10.06
2019-03-05T12:35:35.598Z,10.39
2019-03-05T12:36:34.923Z,10.78
2019-03-05T12:37:34.796Z,10.99
2019-03-05T12:38:34.680Z,11.10
2019-03-05T12:39:34.554Z,11.34
2019-03-05T12:40:34.421Z,11.16
2019-03-05T12:41:34.308Z,10.66
2019-03-05T12:42:34.174Z,9.66
2019-03-05T12:43:34.055Z,9.45
2019-03-05T12:44:33.920Z,9.93
2019-03-05T12:45:33.799Z,10.40
2019-03-05T12:46:33.754Z,10.89
2019-03-05T12:47:33.546Z,11.07
2019-03-05T12:48:39.840Z,11.20
2019-03-05T12:49:33.298Z,11.19
2019-03-05T12:50:33.175Z,11.46
2019-03-05T12:51:33.046Z,11.17
2019-03-05T12:52:33.006Z,10.66
2019-03-05T12:53:32.799Z,10.39
2019-03-05T12:54:32.672Z,10.60
2019-03-05T12:55:32.552Z,10.76
2019-03-05T12:56:32.422Z,10.26
2019-03-05T12:57:32.295Z,10.25
2019-03-05T12:58:32.172Z,10.56
2019-03-05T12:59:32.050Z,11.09